sensor_id;sensor_type;location;lat;lon;timestamp;pressure;altitude;pressure_sealevel;temperature;humidity
66430;BME280;53242;51.694;10.006;2022-12-10T00:00:28;98708.19;;;2.14;81.71
66430;BME280;53242;51.694;10.006;2022-12-10T00:02:51;98710.59;;;2.07;81.90
66430;BME280;53242;51.694;10.006;2022-12-10T00:05:13;98713.97;;;2.00;82.02
66430;BME280;53242;51.694;10.006;2022-12-10T00:07:36;98709.72;;;1.90;82.06
66430;BME280;53242;51.694;10.006;2022-12-10T00:09:58;98707.81;;;2.01;82.38
66430;BME280;53242;51.694;10.006;2022-12-10T00:12:21;98717.41;;;2.00;82.22
66430;BME280;53242;51.694;10.006;2022-12-10T00:14:43;98720.00;;;2.00;82.31
66430;BME280;53242;51.694;10.006;2022-12-10T00:17:05;98714.97;;;1.99;82.45
66430;BME280;53242;51.694;10.006;2022-12-10T00:19:28;98721.31;;;2.04;82.17
66430;BME280;53242;51.694;10.006;2022-12-10T00:21:50;98724.59;;;2.06;81.75
66430;BME280;53242;51.694;10.006;2022-12-10T00:24:12;98731.94;;;2.19;81.98
66430;BME280;53242;51.694;10.006;2022-12-10T00:26:36;98722.28;;;2.03;82.24
66430;BME280;53242;51.694;10.006;2022-12-10T00:29:01;98722.28;;;1.95;82.38
66430;BME280;53242;51.694;10.006;2022-12-10T00:31:25;98724.38;;;1.91;82.35
66430;BME280;53242;51.694;10.006;2022-12-10T00:33:49;98730.25;;;1.93;82.66
66430;BME280;53242;51.694;10.006;2022-12-10T00:36:17;98726.00;;;1.92;82.91
66430;BME280;53242;51.694;10.006;2022-12-10T00:38:41;98723.69;;;1.89;82.41
66430;BME280;53242;51.694;10.006;2022-12-10T00:41:04;98727.13;;;1.90;82.62
66430;BME280;53242;51.694;10.006;2022-12-10T00:43:29;98723.06;;;1.95;82.28
66430;BME280;53242;51.694;10.006;2022-12-10T00:45:52;98725.19;;;1.92;82.66
66430;BME280;53242;51.694;10.006;2022-12-10T00:48:15;98714.75;;;1.92;82.45
66430;BME280;53242;51.694;10.006;2022-12-10T00:50:37;98720.97;;;1.91;82.79
66430;BME280;53242;51.694;10.006;2022-12-10T00:52:59;98719.50;;;1.88;82.90
66430;BME280;53242;51.694;10.006;2022-12-10T00:55:22;98721.44;;;1.94;82.73
66430;BME280;53242;51.694;10.006;2022-12-10T00:57:44;98720.13;;;1.82;83.04
66430;BME280;53242;51.694;10.006;2022-12-10T01:00:07;98728.78;;;1.99;82.86
66430;BME280;53242;51.694;10.006;2022-12-10T01:02:29;98721.78;;;2.00;82.74
66430;BME280;53242;51.694;10.006;2022-12-10T01:04:53;98726.53;;;2.04;82.40
66430;BME280;53242;51.694;10.006;2022-12-10T01:07:15;98721.66;;;2.01;82.38
66430;BME280;53242;51.694;10.006;2022-12-10T01:09:39;98728.97;;;2.06;82.55
66430;BME280;53242;51.694;10.006;2022-12-10T01:12:03;98737.38;;;1.91;82.77
66430;BME280;53242;51.694;10.006;2022-12-10T01:14:28;98734.09;;;1.89;82.72
66430;BME280;53242;51.694;10.006;2022-12-10T01:16:54;98732.97;;;1.92;82.88
66430;BME280;53242;51.694;10.006;2022-12-10T01:19:16;98744.25;;;2.01;83.02
66430;BME280;53242;51.694;10.006;2022-12-10T01:21:39;98738.22;;;2.00;82.79
66430;BME280;53242;51.694;10.006;2022-12-10T01:24:03;98735.13;;;1.96;82.84
66430;BME280;53242;51.694;10.006;2022-12-10T01:26:29;98743.81;;;1.79;83.19
66430;BME280;53242;51.694;10.006;2022-12-10T01:28:52;98737.03;;;1.86;83.28
66430;BME280;53242;51.694;10.006;2022-12-10T01:31:21;98736.69;;;1.81;83.47
66430;BME280;53242;51.694;10.006;2022-12-10T01:33:44;98741.63;;;2.01;83.18
66430;BME280;53242;51.694;10.006;2022-12-10T01:36:18;98738.34;;;1.90;83.39
66430;BME280;53242;51.694;10.006;2022-12-10T01:38:41;98742.41;;;1.93;83.37
66430;BME280;53242;51.694;10.006;2022-12-10T01:41:04;98740.69;;;2.10;82.93
66430;BME280;53242;51.694;10.006;2022-12-10T01:46:19;98747.09;;;1.81;83.41
66430;BME280;53242;51.694;10.006;2022-12-10T01:48:42;98748.91;;;1.80;83.24
66430;BME280;53242;51.694;10.006;2022-12-10T01:51:04;98746.66;;;1.86;83.42
66430;BME280;53242;51.694;10.006;2022-12-10T01:53:27;98754.41;;;1.77;83.55
66430;BME280;53242;51.694;10.006;2022-12-10T01:55:51;98754.56;;;1.76;83.71
66430;BME280;53242;51.694;10.006;2022-12-10T01:58:15;98754.19;;;1.62;84.24
66430;BME280;53242;51.694;10.006;2022-12-10T02:00:59;98760.56;;;1.76;84.58
66430;BME280;53242;51.694;10.006;2022-12-10T02:06:20;98764.53;;;1.89;84.27
66430;BME280;53242;51.694;10.006;2022-12-10T02:09:11;98761.56;;;1.75;84.51
66430;BME280;53242;51.694;10.006;2022-12-10T02:11:55;98760.78;;;1.83;84.29
66430;BME280;53242;51.694;10.006;2022-12-10T02:15:14;98758.75;;;1.69;84.85
66430;BME280;53242;51.694;10.006;2022-12-10T02:17:24;98762.25;;;1.51;84.76
66430;BME280;53242;51.694;10.006;2022-12-10T02:20:03;98755.78;;;1.63;84.77
66430;BME280;53242;51.694;10.006;2022-12-10T02:22:32;98756.13;;;1.69;84.36
66430;BME280;53242;51.694;10.006;2022-12-10T02:24:57;98752.19;;;1.56;84.69
66430;BME280;53242;51.694;10.006;2022-12-10T02:30:08;98756.84;;;1.79;84.29
66430;BME280;53242;51.694;10.006;2022-12-10T02:32:36;98746.44;;;1.79;84.48
66430;BME280;53242;51.694;10.006;2022-12-10T02:35:04;98753.16;;;1.55;84.55
66430;BME280;53242;51.694;10.006;2022-12-10T02:37:31;98757.81;;;1.43;85.62
66430;BME280;53242;51.694;10.006;2022-12-10T02:39:58;98754.28;;;1.53;85.03
66430;BME280;53242;51.694;10.006;2022-12-10T02:42:25;98756.81;;;1.71;84.72
66430;BME280;53242;51.694;10.006;2022-12-10T02:44:52;98749.00;;;1.71;84.46
66430;BME280;53242;51.694;10.006;2022-12-10T02:47:18;98749.81;;;1.71;84.67
66430;BME280;53242;51.694;10.006;2022-12-10T02:49:43;98756.44;;;1.57;84.86
66430;BME280;53242;51.694;10.006;2022-12-10T02:52:13;98752.34;;;1.55;85.17
66430;BME280;53242;51.694;10.006;2022-12-10T02:54:44;98749.59;;;1.56;84.91
66430;BME280;53242;51.694;10.006;2022-12-10T03:02:25;98749.28;;;1.59;84.80
66430;BME280;53242;51.694;10.006;2022-12-10T03:05:02;98752.53;;;1.61;84.68
66430;BME280;53242;51.694;10.006;2022-12-10T03:07:28;98749.44;;;1.58;84.61
66430;BME280;53242;51.694;10.006;2022-12-10T03:10:06;98754.63;;;1.58;84.45
66430;BME280;53242;51.694;10.006;2022-12-10T03:12:38;98753.75;;;1.75;84.22
66430;BME280;53242;51.694;10.006;2022-12-10T03:15:04;98755.00;;;1.71;84.49
66430;BME280;53242;51.694;10.006;2022-12-10T03:17:30;98753.53;;;1.69;83.88
66430;BME280;53242;51.694;10.006;2022-12-10T03:19:55;98757.75;;;1.61;84.25
66430;BME280;53242;51.694;10.006;2022-12-10T03:22:19;98751.44;;;1.72;83.85
66430;BME280;53242;51.694;10.006;2022-12-10T03:24:43;98749.97;;;1.70;84.17
66430;BME280;53242;51.694;10.006;2022-12-10T03:27:06;98750.22;;;1.58;84.00
66430;BME280;53242;51.694;10.006;2022-12-10T03:29:40;98746.72;;;1.68;84.35
66430;BME280;53242;51.694;10.006;2022-12-10T03:32:04;98750.75;;;1.62;84.47
66430;BME280;53242;51.694;10.006;2022-12-10T03:34:27;98740.06;;;1.39;84.60
66430;BME280;53242;51.694;10.006;2022-12-10T03:36:51;98743.56;;;1.56;84.51
66430;BME280;53242;51.694;10.006;2022-12-10T03:39:13;98743.06;;;1.52;84.52
66430;BME280;53242;51.694;10.006;2022-12-10T03:41:36;98743.13;;;1.69;84.34
66430;BME280;53242;51.694;10.006;2022-12-10T03:43:59;98741.09;;;1.46;84.28
66430;BME280;53242;51.694;10.006;2022-12-10T03:46:23;98738.84;;;1.51;84.59
66430;BME280;53242;51.694;10.006;2022-12-10T03:48:45;98730.88;;;1.53;84.11
66430;BME280;53242;51.694;10.006;2022-12-10T03:51:08;98735.91;;;1.54;84.02
66430;BME280;53242;51.694;10.006;2022-12-10T03:53:30;98735.28;;;1.52;84.45
66430;BME280;53242;51.694;10.006;2022-12-10T03:55:52;98743.28;;;1.59;84.51
66430;BME280;53242;51.694;10.006;2022-12-10T03:58:15;98751.69;;;1.53;83.97
66430;BME280;53242;51.694;10.006;2022-12-10T04:00:37;98746.16;;;1.56;84.20
66430;BME280;53242;51.694;10.006;2022-12-10T04:02:59;98747.44;;;1.52;84.44
66430;BME280;53242;51.694;10.006;2022-12-10T04:05:22;98751.53;;;1.54;84.07
66430;BME280;53242;51.694;10.006;2022-12-10T04:07:45;98752.47;;;1.53;84.15
66430;BME280;53242;51.694;10.006;2022-12-10T04:10:07;98753.47;;;1.52;84.19
66430;BME280;53242;51.694;10.006;2022-12-10T04:12:30;98754.78;;;1.56;83.97
66430;BME280;53242;51.694;10.006;2022-12-10T04:14:52;98750.72;;;1.54;83.66
66430;BME280;53242;51.694;10.006;2022-12-10T04:17:33;98758.88;;;1.33;84.40
66430;BME280;53242;51.694;10.006;2022-12-10T04:19:56;98760.66;;;1.32;84.51
66430;BME280;53242;51.694;10.006;2022-12-10T04:22:18;98754.03;;;1.38;84.69
66430;BME280;53242;51.694;10.006;2022-12-10T04:25:03;98752.72;;;1.34;84.20
66430;BME280;53242;51.694;10.006;2022-12-10T04:27:44;98741.19;;;1.36;83.96
66430;BME280;53242;51.694;10.006;2022-12-10T04:30:09;98747.41;;;1.43;83.92
66430;BME280;53242;51.694;10.006;2022-12-10T04:32:32;98752.25;;;1.38;84.01
66430;BME280;53242;51.694;10.006;2022-12-10T04:34:55;98751.31;;;1.47;83.69
66430;BME280;53242;51.694;10.006;2022-12-10T04:37:18;98748.34;;;1.34;84.31
66430;BME280;53242;51.694;10.006;2022-12-10T04:39:41;98750.44;;;1.30;84.04
66430;BME280;53242;51.694;10.006;2022-12-10T04:42:04;98750.47;;;1.39;84.24
66430;BME280;53242;51.694;10.006;2022-12-10T04:44:27;98751.75;;;1.35;84.11
66430;BME280;53242;51.694;10.006;2022-12-10T04:46:49;98747.00;;;1.30;84.09
66430;BME280;53242;51.694;10.006;2022-12-10T04:49:12;98758.44;;;1.11;84.79
66430;BME280;53242;51.694;10.006;2022-12-10T04:51:35;98752.06;;;1.31;84.27
66430;BME280;53242;51.694;10.006;2022-12-10T04:53:58;98749.81;;;1.37;84.18
66430;BME280;53242;51.694;10.006;2022-12-10T04:56:20;98754.53;;;1.41;83.70
66430;BME280;53242;51.694;10.006;2022-12-10T04:58:43;98750.47;;;1.39;83.61
66430;BME280;53242;51.694;10.006;2022-12-10T05:01:09;98763.94;;;1.34;83.78
66430;BME280;53242;51.694;10.006;2022-12-10T05:03:34;98760.50;;;1.34;83.91
66430;BME280;53242;51.694;10.006;2022-12-10T05:06:03;98767.44;;;1.25;83.86
66430;BME280;53242;51.694;10.006;2022-12-10T05:08:26;98761.44;;;1.24;83.80
66430;BME280;53242;51.694;10.006;2022-12-10T05:10:48;98757.38;;;1.30;83.87
66430;BME280;53242;51.694;10.006;2022-12-10T05:13:11;98760.97;;;1.29;83.74
66430;BME280;53242;51.694;10.006;2022-12-10T05:15:38;98760.38;;;1.17;84.32
66430;BME280;53242;51.694;10.006;2022-12-10T05:18:00;98760.78;;;1.04;84.56
66430;BME280;53242;51.694;10.006;2022-12-10T05:20:22;98761.81;;;1.11;84.44
66430;BME280;53242;51.694;10.006;2022-12-10T05:22:45;98764.63;;;1.18;84.12
66430;BME280;53242;51.694;10.006;2022-12-10T05:25:26;98761.63;;;1.31;83.81
66430;BME280;53242;51.694;10.006;2022-12-10T05:27:48;98768.78;;;1.29;83.80
66430;BME280;53242;51.694;10.006;2022-12-10T05:30:11;98767.91;;;1.20;84.04
66430;BME280;53242;51.694;10.006;2022-12-10T05:32:33;98773.69;;;1.14;84.04
66430;BME280;53242;51.694;10.006;2022-12-10T05:34:56;98769.41;;;1.05;84.01
66430;BME280;53242;51.694;10.006;2022-12-10T05:37:18;98779.13;;;1.03;84.37
66430;BME280;53242;51.694;10.006;2022-12-10T05:39:40;98779.50;;;1.08;83.93
66430;BME280;53242;51.694;10.006;2022-12-10T05:42:03;98780.56;;;0.97;84.28
66430;BME280;53242;51.694;10.006;2022-12-10T05:44:25;98786.66;;;1.06;84.18
66430;BME280;53242;51.694;10.006;2022-12-10T05:46:47;98787.97;;;1.10;84.21
66430;BME280;53242;51.694;10.006;2022-12-10T05:49:10;98790.50;;;1.02;84.46
66430;BME280;53242;51.694;10.006;2022-12-10T05:51:35;98790.66;;;1.00;84.05
66430;BME280;53242;51.694;10.006;2022-12-10T05:53:59;98795.28;;;1.14;83.86
66430;BME280;53242;51.694;10.006;2022-12-10T05:56:24;98799.03;;;0.94;84.10
66430;BME280;53242;51.694;10.006;2022-12-10T05:58:50;98799.56;;;0.79;84.59
66430;BME280;53242;51.694;10.006;2022-12-10T06:01:16;98803.66;;;0.82;84.63
66430;BME280;53242;51.694;10.006;2022-12-10T06:03:39;98802.91;;;0.90;84.93
66430;BME280;53242;51.694;10.006;2022-12-10T06:06:01;98805.13;;;0.85;84.91
66430;BME280;53242;51.694;10.006;2022-12-10T06:08:23;98796.69;;;1.01;84.43
66430;BME280;53242;51.694;10.006;2022-12-10T06:10:46;98804.09;;;0.95;84.46
66430;BME280;53242;51.694;10.006;2022-12-10T06:13:08;98805.06;;;0.94;84.62
66430;BME280;53242;51.694;10.006;2022-12-10T06:15:31;98811.22;;;0.93;84.12
66430;BME280;53242;51.694;10.006;2022-12-10T06:17:55;98805.44;;;1.00;84.21
66430;BME280;53242;51.694;10.006;2022-12-10T06:20:17;98808.19;;;0.80;84.45
66430;BME280;53242;51.694;10.006;2022-12-10T06:22:40;98804.97;;;0.86;84.41
66430;BME280;53242;51.694;10.006;2022-12-10T06:25:02;98807.44;;;0.88;84.43
66430;BME280;53242;51.694;10.006;2022-12-10T06:27:25;98807.19;;;0.81;84.48
66430;BME280;53242;51.694;10.006;2022-12-10T06:29:47;98812.19;;;0.92;84.21
66430;BME280;53242;51.694;10.006;2022-12-10T06:32:09;98811.44;;;1.00;84.10
66430;BME280;53242;51.694;10.006;2022-12-10T06:34:32;98810.09;;;0.78;84.73
66430;BME280;53242;51.694;10.006;2022-12-10T06:36:54;98817.31;;;0.84;84.55
66430;BME280;53242;51.694;10.006;2022-12-10T06:39:16;98812.66;;;0.88;84.46
66430;BME280;53242;51.694;10.006;2022-12-10T06:41:39;98822.34;;;0.86;84.87
66430;BME280;53242;51.694;10.006;2022-12-10T06:44:09;98823.47;;;0.65;85.08
66430;BME280;53242;51.694;10.006;2022-12-10T06:46:31;98818.78;;;0.87;84.69
66430;BME280;53242;51.694;10.006;2022-12-10T06:48:54;98818.13;;;0.85;84.63
66430;BME280;53242;51.694;10.006;2022-12-10T06:51:17;98822.94;;;0.97;84.39
66430;BME280;53242;51.694;10.006;2022-12-10T06:53:40;98822.13;;;0.79;84.86
66430;BME280;53242;51.694;10.006;2022-12-10T06:56:04;98821.69;;;0.84;84.86
66430;BME280;53242;51.694;10.006;2022-12-10T06:58:31;98819.16;;;0.92;84.72
66430;BME280;53242;51.694;10.006;2022-12-10T07:00:54;98828.13;;;0.97;84.33
66430;BME280;53242;51.694;10.006;2022-12-10T07:03:24;98825.69;;;0.96;84.46
66430;BME280;53242;51.694;10.006;2022-12-10T07:05:46;98832.81;;;0.76;84.73
66430;BME280;53242;51.694;10.006;2022-12-10T07:08:08;98827.47;;;0.77;84.53
66430;BME280;53242;51.694;10.006;2022-12-10T07:10:30;98830.06;;;0.59;84.99
66430;BME280;53242;51.694;10.006;2022-12-10T07:12:53;98827.91;;;0.73;84.83
66430;BME280;53242;51.694;10.006;2022-12-10T07:15:16;98830.94;;;0.86;84.27
66430;BME280;53242;51.694;10.006;2022-12-10T07:17:38;98837.94;;;1.04;84.24
66430;BME280;53242;51.694;10.006;2022-12-10T07:20:00;98837.25;;;1.02;83.91
66430;BME280;53242;51.694;10.006;2022-12-10T07:22:24;98842.19;;;1.05;83.89
66430;BME280;53242;51.694;10.006;2022-12-10T07:24:48;98847.81;;;1.00;83.62
66430;BME280;53242;51.694;10.006;2022-12-10T07:27:10;98846.91;;;0.91;84.06
66430;BME280;53242;51.694;10.006;2022-12-10T07:29:33;98849.06;;;0.96;83.65
66430;BME280;53242;51.694;10.006;2022-12-10T07:31:56;98849.22;;;0.94;83.81
66430;BME280;53242;51.694;10.006;2022-12-10T07:34:18;98846.41;;;1.06;83.53
66430;BME280;53242;51.694;10.006;2022-12-10T07:36:40;98853.59;;;1.12;83.50
66430;BME280;53242;51.694;10.006;2022-12-10T07:39:06;98845.34;;;1.17;83.39
66430;BME280;53242;51.694;10.006;2022-12-10T07:41:28;98851.25;;;1.01;83.67
66430;BME280;53242;51.694;10.006;2022-12-10T07:43:53;98863.78;;;1.05;83.14
66430;BME280;53242;51.694;10.006;2022-12-10T07:46:19;98862.38;;;0.93;83.74
66430;BME280;53242;51.694;10.006;2022-12-10T07:48:43;98853.97;;;0.99;83.62
66430;BME280;53242;51.694;10.006;2022-12-10T07:51:06;98861.63;;;0.82;83.81
66430;BME280;53242;51.694;10.006;2022-12-10T07:53:29;98867.41;;;1.12;83.13
66430;BME280;53242;51.694;10.006;2022-12-10T07:55:52;98859.78;;;1.11;82.89
66430;BME280;53242;51.694;10.006;2022-12-10T07:58:14;98865.34;;;0.98;83.30
66430;BME280;53242;51.694;10.006;2022-12-10T08:00:36;98862.59;;;1.00;83.65
66430;BME280;53242;51.694;10.006;2022-12-10T08:02:59;98862.22;;;0.94;83.35
66430;BME280;53242;51.694;10.006;2022-12-10T08:05:21;98871.34;;;0.80;83.86
66430;BME280;53242;51.694;10.006;2022-12-10T08:07:45;98860.19;;;0.70;83.96
66430;BME280;53242;51.694;10.006;2022-12-10T08:10:08;98871.72;;;0.86;83.38
66430;BME280;53242;51.694;10.006;2022-12-10T08:12:30;98864.34;;;0.81;83.57
66430;BME280;53242;51.694;10.006;2022-12-10T08:14:53;98868.91;;;0.79;83.98
66430;BME280;53242;51.694;10.006;2022-12-10T08:17:15;98876.31;;;0.74;83.57
66430;BME280;53242;51.694;10.006;2022-12-10T08:19:37;98879.31;;;0.97;83.25
66430;BME280;53242;51.694;10.006;2022-12-10T08:22:00;98870.06;;;0.67;84.37
66430;BME280;53242;51.694;10.006;2022-12-10T08:24:22;98876.84;;;0.77;83.63
66430;BME280;53242;51.694;10.006;2022-12-10T08:26:44;98878.81;;;0.84;83.22
66430;BME280;53242;51.694;10.006;2022-12-10T08:29:07;98872.69;;;1.03;83.28
66430;BME280;53242;51.694;10.006;2022-12-10T08:31:30;98881.31;;;0.85;83.57
66430;BME280;53242;51.694;10.006;2022-12-10T08:33:53;98884.41;;;1.07;83.05
66430;BME280;53242;51.694;10.006;2022-12-10T08:36:18;98885.16;;;1.17;82.49
66430;BME280;53242;51.694;10.006;2022-12-10T08:38:41;98886.25;;;0.96;82.83
66430;BME280;53242;51.694;10.006;2022-12-10T08:41:33;98886.50;;;0.85;82.86
66430;BME280;53242;51.694;10.006;2022-12-10T08:43:55;98885.13;;;0.81;83.29
66430;BME280;53242;51.694;10.006;2022-12-10T08:46:18;98888.28;;;1.03;83.23
66430;BME280;53242;51.694;10.006;2022-12-10T08:48:41;98886.94;;;0.98;82.69
66430;BME280;53242;51.694;10.006;2022-12-10T08:51:05;98888.94;;;1.05;82.66
66430;BME280;53242;51.694;10.006;2022-12-10T08:53:28;98895.41;;;1.19;82.13
66430;BME280;53242;51.694;10.006;2022-12-10T08:55:51;98897.13;;;1.10;82.35
66430;BME280;53242;51.694;10.006;2022-12-10T08:58:14;98891.66;;;0.67;83.38
66430;BME280;53242;51.694;10.006;2022-12-10T09:00:36;98892.53;;;0.76;83.43
66430;BME280;53242;51.694;10.006;2022-12-10T09:02:59;98889.22;;;0.84;83.55
66430;BME280;53242;51.694;10.006;2022-12-10T09:05:21;98892.84;;;0.73;83.44
66430;BME280;53242;51.694;10.006;2022-12-10T09:07:43;98899.59;;;0.84;83.40
66430;BME280;53242;51.694;10.006;2022-12-10T09:10:06;98895.28;;;0.74;83.25
66430;BME280;53242;51.694;10.006;2022-12-10T09:12:29;98896.72;;;0.87;82.78
66430;BME280;53242;51.694;10.006;2022-12-10T09:14:51;98899.13;;;0.98;82.58
66430;BME280;53242;51.694;10.006;2022-12-10T09:17:13;98895.47;;;0.91;82.84
66430;BME280;53242;51.694;10.006;2022-12-10T09:19:36;98903.84;;;0.85;83.11
66430;BME280;53242;51.694;10.006;2022-12-10T09:21:58;98900.13;;;0.87;83.15
66430;BME280;53242;51.694;10.006;2022-12-10T09:24:21;98906.00;;;0.89;82.75
66430;BME280;53242;51.694;10.006;2022-12-10T09:26:43;98904.56;;;0.77;83.08
66430;BME280;53242;51.694;10.006;2022-12-10T09:29:05;98912.00;;;0.72;83.35
66430;BME280;53242;51.694;10.006;2022-12-10T09:31:28;98916.78;;;0.67;83.30
66430;BME280;53242;51.694;10.006;2022-12-10T09:33:53;98908.50;;;0.81;83.02
66430;BME280;53242;51.694;10.006;2022-12-10T09:36:16;98913.09;;;0.69;83.24
66430;BME280;53242;51.694;10.006;2022-12-10T09:38:40;98910.91;;;0.92;82.75
66430;BME280;53242;51.694;10.006;2022-12-10T09:44:37;98911.50;;;0.86;82.50
66430;BME280;53242;51.694;10.006;2022-12-10T09:46:48;98907.78;;;0.89;82.88
66430;BME280;53242;51.694;10.006;2022-12-10T09:49:53;98915.22;;;1.02;82.20
66430;BME280;53242;51.694;10.006;2022-12-10T09:52:23;98912.84;;;0.90;82.24
66430;BME280;53242;51.694;10.006;2022-12-10T09:57:25;98919.44;;;0.85;82.96
66430;BME280;53242;51.694;10.006;2022-12-10T09:59:51;98913.88;;;0.97;82.26
66430;BME280;53242;51.694;10.006;2022-12-10T10:04:43;98908.66;;;0.79;82.67
66430;BME280;53242;51.694;10.006;2022-12-10T10:07:06;98905.41;;;0.77;82.96
66430;BME280;53242;51.694;10.006;2022-12-10T10:09:29;98911.09;;;0.81;82.91
66430;BME280;53242;51.694;10.006;2022-12-10T10:11:53;98910.13;;;0.64;83.48
66430;BME280;53242;51.694;10.006;2022-12-10T10:14:26;98909.66;;;0.51;83.31
66430;BME280;53242;51.694;10.006;2022-12-10T10:17:03;98906.19;;;0.60;83.53
66430;BME280;53242;51.694;10.006;2022-12-10T10:19:31;98893.16;;;0.70;83.45
66430;BME280;53242;51.694;10.006;2022-12-10T10:21:56;98906.28;;;0.86;83.00
66430;BME280;53242;51.694;10.006;2022-12-10T10:24:34;98904.31;;;0.80;83.01
66430;BME280;53242;51.694;10.006;2022-12-10T10:26:58;98904.81;;;0.84;82.48
66430;BME280;53242;51.694;10.006;2022-12-10T10:29:23;98908.63;;;0.61;83.55
66430;BME280;53242;51.694;10.006;2022-12-10T10:32:13;98898.03;;;0.73;83.29
66430;BME280;53242;51.694;10.006;2022-12-10T10:34:39;98900.22;;;0.77;83.30
66430;BME280;53242;51.694;10.006;2022-12-10T10:37:02;98912.72;;;0.64;83.60
66430;BME280;53242;51.694;10.006;2022-12-10T10:39:30;98906.38;;;0.76;83.56
66430;BME280;53242;51.694;10.006;2022-12-10T10:41:54;98907.63;;;0.72;83.51
66430;BME280;53242;51.694;10.006;2022-12-10T10:44:20;98904.53;;;0.87;83.36
66430;BME280;53242;51.694;10.006;2022-12-10T10:46:45;98911.63;;;0.85;83.14
66430;BME280;53242;51.694;10.006;2022-12-10T10:51:44;98909.84;;;0.67;83.44
66430;BME280;53242;51.694;10.006;2022-12-10T10:54:07;98912.56;;;0.65;83.77
66430;BME280;53242;51.694;10.006;2022-12-10T10:56:32;98908.84;;;0.68;83.44
66430;BME280;53242;51.694;10.006;2022-12-10T10:59:04;98909.19;;;0.83;83.09
66430;BME280;53242;51.694;10.006;2022-12-10T11:01:51;98912.47;;;0.85;83.54
66430;BME280;53242;51.694;10.006;2022-12-10T11:04:16;98906.81;;;0.90;82.71
66430;BME280;53242;51.694;10.006;2022-12-10T11:06:43;98914.53;;;0.81;82.80
66430;BME280;53242;51.694;10.006;2022-12-10T11:09:05;98913.69;;;0.81;82.86
66430;BME280;53242;51.694;10.006;2022-12-10T11:14:13;98916.31;;;0.99;83.01
66430;BME280;53242;51.694;10.006;2022-12-10T11:16:35;98919.97;;;1.06;82.55
66430;BME280;53242;51.694;10.006;2022-12-10T11:19:00;98919.97;;;0.88;82.62
66430;BME280;53242;51.694;10.006;2022-12-10T11:21:26;98908.88;;;0.86;82.77
66430;BME280;53242;51.694;10.006;2022-12-10T11:23:52;98915.28;;;0.92;82.60
66430;BME280;53242;51.694;10.006;2022-12-10T11:26:19;98915.19;;;0.84;82.52
66430;BME280;53242;51.694;10.006;2022-12-10T11:28:54;98920.31;;;0.75;82.57
66430;BME280;53242;51.694;10.006;2022-12-10T11:31:46;98913.69;;;0.81;82.87
66430;BME280;53242;51.694;10.006;2022-12-10T11:34:20;98916.41;;;0.89;82.34
66430;BME280;53242;51.694;10.006;2022-12-10T11:37:01;98917.59;;;0.95;82.06
66430;BME280;53242;51.694;10.006;2022-12-10T11:42:29;98918.16;;;0.89;82.62
66430;BME280;53242;51.694;10.006;2022-12-10T11:45:06;98913.69;;;0.81;82.78
66430;BME280;53242;51.694;10.006;2022-12-10T11:50:15;98920.91;;;0.87;82.27
66430;BME280;53242;51.694;10.006;2022-12-10T11:55:46;98919.16;;;0.88;82.21
66430;BME280;53242;51.694;10.006;2022-12-10T12:03:29;98922.06;;;1.21;81.04
66430;BME280;53242;51.694;10.006;2022-12-10T12:09:00;98920.91;;;0.87;81.32
66430;BME280;53242;51.694;10.006;2022-12-10T12:13:56;98928.44;;;0.62;82.33
66430;BME280;53242;51.694;10.006;2022-12-10T12:16:38;98933.44;;;0.74;82.37
66430;BME280;53242;51.694;10.006;2022-12-10T12:19:13;98925.13;;;0.70;82.15
66430;BME280;53242;51.694;10.006;2022-12-10T12:21:36;98926.41;;;0.84;81.74
66430;BME280;53242;51.694;10.006;2022-12-10T12:24:16;98926.56;;;0.82;81.85
66430;BME280;53242;51.694;10.006;2022-12-10T12:29:33;98933.53;;;0.82;81.49
66430;BME280;53242;51.694;10.006;2022-12-10T12:32:25;98929.75;;;0.76;81.51
66430;BME280;53242;51.694;10.006;2022-12-10T12:37:16;98934.22;;;0.56;82.34
66430;BME280;53242;51.694;10.006;2022-12-10T12:42:31;98933.28;;;0.75;81.70
66430;BME280;53242;51.694;10.006;2022-12-10T12:47:43;98930.75;;;0.65;82.12
66430;BME280;53242;51.694;10.006;2022-12-10T12:50:20;98931.88;;;0.81;81.59
66430;BME280;53242;51.694;10.006;2022-12-10T12:52:53;98934.03;;;0.68;81.89
66430;BME280;53242;51.694;10.006;2022-12-10T13:00:43;98941.34;;;0.54;82.77
66430;BME280;53242;51.694;10.006;2022-12-10T13:05:52;98939.06;;;0.69;82.28
66430;BME280;53242;51.694;10.006;2022-12-10T13:10:46;98940.38;;;0.83;82.25
66430;BME280;53242;51.694;10.006;2022-12-10T13:13:36;98939.19;;;0.77;82.17
66430;BME280;53242;51.694;10.006;2022-12-10T13:24:12;98942.69;;;0.58;82.33
66430;BME280;53242;51.694;10.006;2022-12-10T13:26:35;98949.41;;;0.51;82.13
66430;BME280;53242;51.694;10.006;2022-12-10T13:29:24;98951.00;;;0.62;82.48
66430;BME280;53242;51.694;10.006;2022-12-10T13:32:02;98958.44;;;0.47;82.64
66430;BME280;53242;51.694;10.006;2022-12-10T13:34:33;98957.88;;;0.53;82.62
66430;BME280;53242;51.694;10.006;2022-12-10T13:37:06;98953.63;;;0.52;82.31
66430;BME280;53242;51.694;10.006;2022-12-10T13:39:46;98956.69;;;0.38;82.56
66430;BME280;53242;51.694;10.006;2022-12-10T13:47:24;98964.25;;;0.31;82.89
66430;BME280;53242;51.694;10.006;2022-12-10T13:49:53;98959.84;;;0.41;82.68
66430;BME280;53242;51.694;10.006;2022-12-10T13:52:22;98968.03;;;0.46;82.48
66430;BME280;53242;51.694;10.006;2022-12-10T13:55:08;98973.78;;;0.30;82.84
66430;BME280;53242;51.694;10.006;2022-12-10T13:57:51;98966.94;;;0.39;82.82
66430;BME280;53242;51.694;10.006;2022-12-10T14:00:17;98975.44;;;0.31;82.66
66430;BME280;53242;51.694;10.006;2022-12-10T14:02:58;98977.63;;;0.26;82.63
66430;BME280;53242;51.694;10.006;2022-12-10T14:08:31;98982.94;;;0.35;82.92
66430;BME280;53242;51.694;10.006;2022-12-10T14:10:55;98981.97;;;0.36;82.73
66430;BME280;53242;51.694;10.006;2022-12-10T14:13:20;98982.94;;;0.35;83.52
66430;BME280;53242;51.694;10.006;2022-12-10T14:15:53;98983.28;;;0.12;83.45
66430;BME280;53242;51.694;10.006;2022-12-10T14:18:16;98984.34;;;0.19;83.51